Private Wetterstation Wechselburg
Wetterdaten: Freitag, 30.07.2010
Datum Zeit Temp. +2m Bodentemp. Temp.+5cm Temp. Wind Windchill X Diff Temp. Feuchte +2m Feuchte +5cm Sonnenschein Luftdruck Regen Wind Richtung Richtung Sonnenschein UV Taupunkt Windchill Windben
30.07.2010 00:00 15,9 C 19,4 C 14,5 C 15,0 C 13,3 C 0,0 C 83 % 80 % 0 % 1008,8 hPa 0,0 l/m 1,1 km/h (1 Bft) S-SO 157 0 min 0,0 UV-I 13,0 C 13,3 C 1,8 km/h (1 Bft)
30.07.2010 00:07 15,8 C 19,3 C 14,4 C 14,9 C 13,1 C 0,0 C 82 % 80 % 0 % 1008,8 hPa 0,0 l/m 0,8 km/h (0 Bft) N 0 0 min 0,0 UV-I 12,7 C 13,1 C 1,6 km/h (1 Bft)
30.07.2010 00:10 15,8 C 19,3 C 14,4 C 14,9 C 13,1 C 0,0 C 82 % 80 % 0 % 1008,8 hPa 0,0 l/m 0,8 km/h (0 Bft) S-SO 157 0 min 0,0 UV-I 12,7 C 13,1 C 1,6 km/h (1 Bft)
30.07.2010 00:15 15,7 C 19,4 C 14,5 C 14,8 C 13,0 C 0,0 C 82 % 80 % 0 % 1008,8 hPa 0,0 l/m 0,5 km/h (0 Bft) O-NO 67 0 min 0,0 UV-I 12,6 C 13,0 C 3,1 km/h (1 Bft)
30.07.2010 00:20 15,7 C 19,4 C 14,4 C 14,7 C 12,8 C 0,0 C 83 % 80 % 0 % 1008,8 hPa 0,0 l/m 0,2 km/h (0 Bft) SW 225 0 min 0,0 UV-I 12,8 C 12,8 C 0,0 km/h (0 Bft)
30.07.2010 00:25 15,6 C 19,4 C 14,3 C 14,7 C 12,8 C 0,0 C 83 % 80 % 0 % 1008,8 hPa 0,0 l/m 0,3 km/h (0 Bft) SO 135 0 min 0,0 UV-I 12,7 C 12,8 C 3,5 km/h (1 Bft)
30.07.2010 00:30 15,7 C 19,4 C 14,3 C 14,7 C 12,8 C 0,0 C 83 % 80 % 0 % 1008,8 hPa 0,0 l/m 0,3 km/h (0 Bft) S-SO 157 0 min 0,0 UV-I 12,8 C 12,8 C 0,0 km/h (0 Bft)
30.07.2010 00:35 15,6 C 19,4 C 14,3 C 14,7 C 12,8 C 0,0 C 83 % 81 % 0 % 1008,8 hPa 0,0 l/m 0,3 km/h (0 Bft) S-SW 202 0 min 0,0 UV-I 12,7 C 12,8 C 0,0 km/h (0 Bft)
30.07.2010 00:40 15,6 C 19,3 C 14,2 C 14,7 C 12,8 C 0,0 C 83 % 81 % 0 % 1008,9 hPa 0,0 l/m 0,5 km/h (0 Bft) SW 225 0 min 0,0 UV-I 12,7 C 12,8 C 1,9 km/h (1 Bft)
30.07.2010 00:45 15,5 C 19,3 C 14,3 C 14,6 C 12,8 C 0,0 C 83 % 81 % 0 % 1008,9 hPa 0,0 l/m 0,2 km/h (0 Bft) S 180 0 min 0,0 UV-I 12,6 C 12,8 C 0,0 km/h (0 Bft)
30.07.2010 00:50 15,5 C 19,3 C 14,3 C 14,6 C 12,8 C 0,0 C 83 % 81 % 0 % 1008,9 hPa 0,0 l/m 0,2 km/h (0 Bft) S 180 0 min 0,0 UV-I 12,6 C 12,8 C 1,8 km/h (1 Bft)
30.07.2010 00:55 15,5 C 19,2 C 14,1 C 14,6 C 12,7 C 0,0 C 83 % 81 % 0 % 1008,9 hPa 0,0 l/m 0,5 km/h (0 Bft) SO 135 0 min 0,0 UV-I 12,6 C 12,7 C 3,7 km/h (1 Bft)
30.07.2010 01:00 15,5 C 19,2 C 14,1 C 14,6 C 12,7 C 0,0 C 84 % 81 % 0 % 1009,0 hPa 0,0 l/m 0,6 km/h (0 Bft) S 180 0 min 0,0 UV-I 12,8 C 12,7 C 0,0 km/h (0 Bft)
30.07.2010 01:07 15,3 C 19,3 C 14,1 C 14,4 C 12,5 C 0,0 C 84 % 81 % 0 % 1009,0 hPa 0,0 l/m 0,2 km/h (0 Bft) N 0 0 min 0,0 UV-I 12,6 C 12,5 C 0,0 km/h (0 Bft)
30.07.2010 01:10 15,3 C 19,3 C 14,1 C 14,4 C 12,5 C 0,0 C 84 % 81 % 0 % 1009,0 hPa 0,0 l/m 0,2 km/h (0 Bft) S-SO 157 0 min 0,0 UV-I 12,6 C 12,5 C 0,0 km/h (0 Bft)
30.07.2010 01:15 15,3 C 19,3 C 14,0 C 14,4 C 12,5 C 0,0 C 84 % 81 % 0 % 1009,0 hPa 0,0 l/m 0,2 km/h (0 Bft) SO 135 0 min 0,0 UV-I 12,6 C 12,5 C 0,0 km/h (0 Bft)
30.07.2010 01:20 15,2 C 19,3 C 14,0 C 14,3 C 12,4 C 0,0 C 84 % 81 % 0 % 1008,8 hPa 0,0 l/m 0,3 km/h (0 Bft) S-SO 157 0 min 0,0 UV-I 12,5 C 12,4 C 0,0 km/h (0 Bft)
30.07.2010 01:25 15,3 C 19,3 C 14,0 C 14,3 C 12,3 C 0,0 C 84 % 81 % 0 % 1008,8 hPa 0,0 l/m 0,2 km/h (0 Bft) S 180 0 min 0,0 UV-I 12,6 C 12,3 C 0,0 km/h (0 Bft)
30.07.2010 01:30 15,2 C 19,3 C 13,9 C 14,2 C 12,3 C 0,0 C 84 % 81 % 0 % 1008,8 hPa 0,0 l/m 0,0 km/h (0 Bft) S 180 0 min 0,0 UV-I 12,5 C 12,3 C 0,0 km/h (0 Bft)
30.07.2010 01:35 15,1 C 19,3 C 13,9 C 14,1 C 12,2 C 0,0 C 84 % 80 % 0 % 1008,8 hPa 0,0 l/m 0,0 km/h (0 Bft) S 180 0 min 0,0 UV-I 12,4 C 12,2 C 0,0 km/h (0 Bft)
30.07.2010 01:40 15,1 C 19,3 C 13,7 C 14,1 C 12,1 C 0,0 C 84 % 81 % 0 % 1008,9 hPa 0,0 l/m 0,0 km/h (0 Bft) S 180 0 min 0,0 UV-I 12,4 C 12,1 C 0,0 km/h (0 Bft)
30.07.2010 01:45 15,1 C 19,2 C 13,7 C 14,1 C 12,0 C 0,0 C 84 % 81 % 0 % 1008,9 hPa 0,0 l/m 0,2 km/h (0 Bft) S 180 0 min 0,0 UV-I 12,4 C 12,0 C 0,0 km/h (0 Bft)
30.07.2010 01:50 15,0 C 19,2 C 13,6 C 14,0 C 12,0 C 0,0 C 84 % 80 % 0 % 1008,9 hPa 0,0 l/m 0,2 km/h (0 Bft) S-SO 157 0 min 0,0 UV-I 12,3 C 12,0 C 0,0 km/h (0 Bft)
30.07.2010 01:55 14,9 C 19,2 C 13,6 C 13,9 C 12,0 C 0,0 C 84 % 80 % 0 % 1008,9 hPa 0,0 l/m 0,5 km/h (0 Bft) S 180 0 min 0,0 UV-I 12,2 C 12,0 C 4,5 km/h (1 Bft)
30.07.2010 02:00 15,0 C 19,2 C 13,6 C 14,0 C 12,0 C 0,0 C 84 % 80 % 0 % 1009,1 hPa 0,0 l/m 0,5 km/h (0 Bft) S-SW 202 0 min 0,0 UV-I 12,3 C 12,0 C 0,0 km/h (0 Bft)
30.07.2010 02:07 14,9 C 19,2 C 13,6 C 13,9 C 12,0 C 0,0 C 84 % 80 % 0 % 1009,1 hPa 0,0 l/m 0,2 km/h (0 Bft) N 0 0 min 0,0 UV-I 12,2 C 12,0 C 0,0 km/h (0 Bft)
30.07.2010 02:10 14,9 C 19,2 C 13,6 C 13,9 C 12,0 C 0,0 C 84 % 80 % 0 % 1009,1 hPa 0,0 l/m 0,2 km/h (0 Bft) O-NO 67 0 min 0,0 UV-I 12,2 C 12,0 C 0,0 km/h (0 Bft)
30.07.2010 02:15 14,9 C 19,2 C 13,5 C 13,9 C 12,0 C 0,0 C 84 % 80 % 0 % 1009,1 hPa 0,0 l/m 0,0 km/h (0 Bft) S 180 0 min 0,0 UV-I 12,2 C 12,0 C 0,0 km/h (0 Bft)
30.07.2010 02:20 14,9 C 19,1 C 13,5 C 13,9 C 12,0 C 0,0 C 84 % 80 % 0 % 1009,2 hPa 0,0 l/m 0,0 km/h (0 Bft) O-NO 67 0 min 0,0 UV-I 12,2 C 12,0 C 1,6 km/h (1 Bft)
30.07.2010 02:25 14,8 C 19,1 C 13,6 C 13,9 C 12,1 C 0,0 C 84 % 80 % 0 % 1009,2 hPa 0,0 l/m 0,2 km/h (0 Bft) SO 135 0 min 0,0 UV-I 12,1 C 12,1 C 0,0 km/h (0 Bft)
30.07.2010 02:30 14,8 C 19,1 C 13,5 C 13,9 C 12,1 C 0,0 C 84 % 80 % 0 % 1009,2 hPa 0,0 l/m 0,3 km/h (0 Bft) O-NO 67 0 min 0,0 UV-I 12,1 C 12,1 C 0,0 km/h (0 Bft)
30.07.2010 02:35 14,7 C 19,1 C 13,6 C 13,9 C 12,2 C 0,0 C 84 % 80 % 0 % 1009,2 hPa 0,0 l/m 0,0 km/h (0 Bft) O-NO 67 0 min 0,0 UV-I 12,0 C 12,2 C 0,0 km/h (0 Bft)
30.07.2010 02:40 14,7 C 19,0 C 13,6 C 13,9 C 12,3 C 0,0 C 84 % 80 % 0 % 1009,4 hPa 0,0 l/m 0,0 km/h (0 Bft) W 270 0 min 0,0 UV-I 12,0 C 12,3 C 0,0 km/h (0 Bft)
30.07.2010 02:45 14,8 C 19,0 C 13,6 C 14,0 C 12,4 C 0,0 C 84 % 80 % 0 % 1009,4 hPa 0,0 l/m 0,2 km/h (0 Bft) S-SW 202 0 min 0,0 UV-I 12,1 C 12,4 C 0,0 km/h (0 Bft)
30.07.2010 02:50 14,9 C 19,0 C 13,7 C 14,1 C 12,5 C 0,0 C 85 % 81 % 0 % 1009,4 hPa 0,0 l/m 0,3 km/h (0 Bft) S-SW 202 0 min 0,0 UV-I 12,4 C 12,5 C 0,0 km/h (0 Bft)
30.07.2010 02:55 14,8 C 18,9 C 13,7 C 14,1 C 12,6 C 0,0 C 85 % 81 % 0 % 1009,4 hPa 0,0 l/m 1,0 km/h (0 Bft) SW 225 0 min 0,0 UV-I 12,3 C 12,6 C 2,9 km/h (1 Bft)
30.07.2010 03:00 14,9 C 18,9 C 13,7 C 14,2 C 12,7 C 0,0 C 85 % 81 % 0 % 1009,8 hPa 0,0 l/m 0,8 km/h (0 Bft) S 180 0 min 0,0 UV-I 12,4 C 12,7 C 1,8 km/h (1 Bft)
30.07.2010 03:07 14,8 C 19,0 C 13,7 C 14,0 C 12,5 C 0,0 C 85 % 81 % 0 % 1009,8 hPa 0,0 l/m 0,3 km/h (0 Bft) N 0 0 min 0,0 UV-I 12,3 C 12,5 C 0,0 km/h (0 Bft)
30.07.2010 03:10 14,8 C 19,0 C 13,7 C 14,0 C 12,5 C 0,0 C 85 % 81 % 0 % 1009,8 hPa 0,0 l/m 0,3 km/h (0 Bft) S-SW 202 0 min 0,0 UV-I 12,3 C 12,5 C 0,0 km/h (0 Bft)
30.07.2010 03:15 14,8 C 19,0 C 13,7 C 14,0 C 12,5 C 0,0 C 85 % 81 % 0 % 1009,8 hPa 0,0 l/m 0,0 km/h (0 Bft) S-SW 202 0 min 0,0 UV-I 12,3 C 12,5 C 0,0 km/h (0 Bft)
30.07.2010 03:20 14,9 C 19,0 C 13,6 C 14,1 C 12,5 C 0,0 C 85 % 81 % 0 % 1009,5 hPa 0,0 l/m 0,0 km/h (0 Bft) S-SW 202 0 min 0,0 UV-I 12,4 C 12,5 C 0,0 km/h (0 Bft)
30.07.2010 03:25 14,7 C 19,0 C 13,7 C 14,0 C 12,6 C 0,0 C 85 % 81 % 0 % 1009,5 hPa 0,0 l/m 0,0 km/h (0 Bft) S-SW 202 0 min 0,0 UV-I 12,2 C 12,6 C 0,0 km/h (0 Bft)
30.07.2010 03:30 14,6 C 19,0 C 13,7 C 13,9 C 12,6 C 0,0 C 85 % 81 % 0 % 1009,5 hPa 0,0 l/m 0,0 km/h (0 Bft) S-SW 202 0 min 0,0 UV-I 12,1 C 12,6 C 0,0 km/h (0 Bft)
30.07.2010 03:35 14,7 C 18,9 C 13,7 C 14,0 C 12,7 C 0,0 C 85 % 81 % 0 % 1009,5 hPa 0,0 l/m 0,0 km/h (0 Bft) SW 225 0 min 0,0 UV-I 12,2 C 12,7 C 0,0 km/h (0 Bft)
30.07.2010 03:40 14,8 C 18,9 C 13,7 C 14,1 C 12,7 C 0,0 C 85 % 81 % 0 % 1009,2 hPa 0,0 l/m 0,6 km/h (0 Bft) S 180 0 min 0,0 UV-I 12,3 C 12,7 C 2,1 km/h (1 Bft)
30.07.2010 03:45 14,8 C 18,9 C 13,6 C 14,1 C 12,7 C 0,0 C 85 % 81 % 0 % 1009,2 hPa 0,0 l/m 1,1 km/h (1 Bft) SO 135 0 min 0,0 UV-I 12,3 C 12,7 C 0,0 km/h (0 Bft)
30.07.2010 03:50 14,7 C 18,9 C 13,6 C 14,0 C 12,7 C 0,0 C 85 % 81 % 0 % 1009,2 hPa 0,0 l/m 0,8 km/h (0 Bft) S-SO 157 0 min 0,0 UV-I 12,2 C 12,7 C 2,7 km/h (1 Bft)
30.07.2010 03:55 14,7 C 18,9 C 13,7 C 14,0 C 12,7 C 0,0 C 85 % 81 % 0 % 1009,2 hPa 0,0 l/m 0,6 km/h (0 Bft) SO 135 0 min 0,0 UV-I 12,2 C 12,7 C 1,8 km/h (1 Bft)
30.07.2010 04:00 14,8 C 18,9 C 13,7 C 14,1 C 12,8 C 0,0 C 86 % 81 % 0 % 1009,5 hPa 0,0 l/m 0,8 km/h (0 Bft) O-SO 112 0 min 0,0 UV-I 12,5 C 12,8 C 3,5 km/h (1 Bft)
30.07.2010 04:07 14,8 C 18,9 C 13,7 C 14,2 C 12,9 C 0,0 C 86 % 81 % 0 % 1009,5 hPa 0,0 l/m 1,1 km/h (1 Bft) N 0 0 min 0,0 UV-I 12,5 C 12,9 C 3,4 km/h (1 Bft)
30.07.2010 04:10 14,8 C 18,9 C 13,7 C 14,2 C 12,9 C 0,0 C 86 % 81 % 0 % 1009,5 hPa 0,0 l/m 1,1 km/h (1 Bft) S 180 0 min 0,0 UV-I 12,5 C 12,9 C 3,4 km/h (1 Bft)
30.07.2010 04:15 14,8 C 18,9 C 13,7 C 14,2 C 12,9 C 0,0 C 86 % 81 % 0 % 1009,5 hPa 0,0 l/m 0,8 km/h (0 Bft) W 270 0 min 0,0 UV-I 12,5 C 12,9 C 0,0 km/h (0 Bft)
30.07.2010 04:20 14,8 C 18,9 C 13,9 C 14,2 C 13,0 C 0,0 C 86 % 82 % 0 % 1009,7 hPa 0,0 l/m 0,5 km/h (0 Bft) S 180 0 min 0,0 UV-I 12,5 C 13,0 C 0,0 km/h (0 Bft)
30.07.2010 04:25 14,8 C 18,9 C 13,9 C 14,2 C 12,9 C 0,0 C 86 % 81 % 0 % 1009,7 hPa 0,0 l/m 0,3 km/h (0 Bft) W-SW 247 0 min 0,0 UV-I 12,5 C 12,9 C 0,0 km/h (0 Bft)
30.07.2010 04:30 14,8 C 18,9 C 13,9 C 14,2 C 12,9 C 0,0 C 86 % 82 % 0 % 1009,7 hPa 0,0 l/m 0,3 km/h (0 Bft) W-SW 247 0 min 0,0 UV-I 12,5 C 12,9 C 0,0 km/h (0 Bft)
30.07.2010 04:35 14,8 C 18,9 C 13,9 C 14,2 C 12,9 C 0,0 C 86 % 81 % 0 % 1009,7 hPa 0,0 l/m 0,3 km/h (0 Bft) SW 225 0 min 0,0 UV-I 12,5 C 12,9 C 1,8 km/h (1 Bft)
30.07.2010 04:40 14,9 C 18,9 C 13,7 C 14,3 C 13,0 C 0,0 C 86 % 81 % 0 % 1009,9 hPa 0,0 l/m 0,2 km/h (0 Bft) S 180 0 min 0,0 UV-I 12,6 C 13,0 C 0,0 km/h (0 Bft)
30.07.2010 04:45 14,8 C 18,8 C 13,9 C 14,2 C 13,0 C 0,0 C 87 % 82 % 0 % 1009,9 hPa 0,0 l/m 0,6 km/h (0 Bft) SW 225 0 min 0,0 UV-I 12,7 C 13,0 C 3,1 km/h (1 Bft)
30.07.2010 04:50 14,8 C 18,8 C 13,9 C 14,2 C 13,1 C 0,0 C 87 % 82 % 0 % 1009,9 hPa 0,0 l/m 1,3 km/h (1 Bft) SW 225 0 min 0,0 UV-I 12,7 C 13,1 C 3,2 km/h (1 Bft)
30.07.2010 04:55 14,8 C 18,8 C 13,9 C 14,2 C 13,1 C 0,0 C 87 % 82 % 0 % 1009,9 hPa 0,0 l/m 2,4 km/h (1 Bft) SW 225 0 min 0,0 UV-I 12,7 C 13,1 C 1,9 km/h (1 Bft)
30.07.2010 05:00 14,8 C 18,8 C 13,9 C 14,2 C 13,1 C 0,0 C 87 % 82 % 0 % 1009,9 hPa 0,0 l/m 2,6 km/h (1 Bft) S 180 0 min 0,0 UV-I 12,7 C 13,1 C 2,3 km/h (1 Bft)
30.07.2010 05:07 14,8 C 18,7 C 13,9 C 14,2 C 13,1 C 0,0 C 87 % 83 % 0 % 1009,9 hPa 0,0 l/m 2,1 km/h (1 Bft) N 0 0 min 0,0 UV-I 12,7 C 13,1 C 3,7 km/h (1 Bft)
30.07.2010 05:10 14,8 C 18,7 C 13,9 C 14,2 C 13,1 C 0,0 C 87 % 83 % 0 % 1009,9 hPa 0,0 l/m 2,1 km/h (1 Bft) SW 225 0 min 0,0 UV-I 12,7 C 13,1 C 3,7 km/h (1 Bft)
30.07.2010 05:15 14,9 C 18,7 C 13,9 C 14,3 C 13,2 C 0,0 C 87 % 83 % 0 % 1009,9 hPa 0,0 l/m 2,1 km/h (1 Bft) W-SW 247 0 min 0,0 UV-I 12,8 C 13,2 C 4,7 km/h (1 Bft)
30.07.2010 05:20 14,9 C 18,7 C 13,9 C 14,3 C 13,2 C 0,0 C 87 % 83 % 0 % 1010,0 hPa 0,0 l/m 2,1 km/h (1 Bft) S-SW 202 0 min 0,0 UV-I 12,8 C 13,2 C 3,2 km/h (1 Bft)
30.07.2010 05:25 14,9 C 18,7 C 13,9 C 14,4 C 13,3 C 0,0 C 87 % 82 % 0 % 1010,0 hPa 0,0 l/m 1,8 km/h (1 Bft) SW 225 0 min 0,0 UV-I 12,8 C 13,3 C 2,4 km/h (1 Bft)
30.07.2010 05:30 14,9 C 18,7 C 13,9 C 14,4 C 13,3 C 0,0 C 87 % 82 % 0 % 1010,0 hPa 0,0 l/m 1,8 km/h (1 Bft) S 180 0 min 0,0 UV-I 12,8 C 13,3 C 0,0 km/h (0 Bft)
30.07.2010 05:35 14,9 C 18,7 C 13,9 C 14,4 C 13,3 C 0,0 C 86 % 82 % 0 % 1010,0 hPa 0,0 l/m 1,4 km/h (1 Bft) S 180 0 min 0,0 UV-I 12,6 C 13,3 C 0,0 km/h (0 Bft)
30.07.2010 05:40 14,9 C 18,7 C 13,9 C 14,4 C 13,3 C 0,0 C 86 % 82 % 0 % 1010,1 hPa 0,0 l/m 0,8 km/h (0 Bft) SW 225 0 min 0,0 UV-I 12,6 C 13,3 C 0,0 km/h (0 Bft)
30.07.2010 05:45 14,9 C 18,7 C 13,9 C 14,4 C 13,3 C 0,0 C 86 % 82 % 0 % 1010,1 hPa 0,0 l/m 0,8 km/h (0 Bft) SW 225 0 min 0,0 UV-I 12,6 C 13,3 C 1,9 km/h (1 Bft)
30.07.2010 05:50 14,8 C 18,7 C 14,0 C 14,3 C 13,3 C 0,0 C 86 % 82 % 0 % 1010,1 hPa 0,0 l/m 0,8 km/h (0 Bft) S-SW 202 0 min 0,0 UV-I 12,5 C 13,3 C 2,9 km/h (1 Bft)
30.07.2010 05:55 14,9 C 18,7 C 14,0 C 14,4 C 13,3 C 0,0 C 86 % 81 % 0 % 1010,1 hPa 0,0 l/m 0,6 km/h (0 Bft) SW 225 0 min 0,0 UV-I 12,6 C 13,3 C 0,0 km/h (0 Bft)
30.07.2010 06:00 14,8 C 18,7 C 13,8 C 14,3 C 13,3 C 0,0 C 86 % 81 % 0 % 1010,3 hPa 0,0 l/m 0,8 km/h (0 Bft) W-SW 247 0 min 0,0 UV-I 12,5 C 13,3 C 0,0 km/h (0 Bft)
30.07.2010 06:07 14,8 C 18,6 C 13,8 C 14,3 C 13,3 C 0,0 C 86 % 81 % 0 % 1010,3 hPa 0,0 l/m 0,0 km/h (0 Bft) N 0 0 min 0,0 UV-I 12,5 C 13,3 C 0,0 km/h (0 Bft)
30.07.2010 06:10 14,8 C 18,6 C 13,8 C 14,3 C 13,3 C 0,0 C 86 % 81 % 0 % 1010,3 hPa 0,0 l/m 0,0 km/h (0 Bft) SW 225 0 min 0,0 UV-I 12,5 C 13,3 C 0,0 km/h (0 Bft)
30.07.2010 06:15 14,9 C 18,6 C 13,9 C 14,4 C 13,3 C 0,0 C 87 % 81 % 0 % 1010,3 hPa 0,0 l/m 0,0 km/h (0 Bft) SO 135 0 min 0,0 UV-I 12,8 C 13,3 C 0,0 km/h (0 Bft)
30.07.2010 06:20 14,8 C 18,6 C 13,9 C 14,3 C 13,3 C 0,0 C 86 % 81 % 0 % 1010,3 hPa 0,0 l/m 0,2 km/h (0 Bft) SO 135 0 min 0,0 UV-I 12,5 C 13,3 C 1,6 km/h (1 Bft)
30.07.2010 06:25 14,8 C 18,6 C 13,9 C 14,3 C 13,4 C 0,0 C 86 % 81 % 0 % 1010,3 hPa 0,0 l/m 0,2 km/h (0 Bft) W-SW 247 0 min 0,0 UV-I 12,5 C 13,4 C 0,0 km/h (0 Bft)
30.07.2010 06:30 14,8 C 18,6 C 13,9 C 14,3 C 13,4 C 0,0 C 86 % 81 % 0 % 1010,3 hPa 0,0 l/m 0,5 km/h (0 Bft) S 180 0 min 0,0 UV-I 12,5 C 13,4 C 3,4 km/h (1 Bft)
30.07.2010 06:35 14,8 C 18,6 C 13,9 C 14,3 C 13,4 C 0,0 C 86 % 81 % 0 % 1010,3 hPa 0,0 l/m 1,0 km/h (0 Bft) S-SO 157 0 min 0,0 UV-I 12,5 C 13,4 C 1,6 km/h (1 Bft)
30.07.2010 06:40 14,8 C 18,6 C 13,9 C 14,4 C 13,5 C 0,0 C 86 % 81 % 0 % 1010,4 hPa 0,0 l/m 0,6 km/h (0 Bft) S 180 0 min 0,0 UV-I 12,5 C 13,5 C 0,0 km/h (0 Bft)
30.07.2010 06:45 14,9 C 18,6 C 13,9 C 14,4 C 13,5 C 0,0 C 86 % 81 % 0 % 1010,4 hPa 0,0 l/m 0,3 km/h (0 Bft) SW 225 0 min 0,0 UV-I 12,6 C 13,5 C 0,0 km/h (0 Bft)
30.07.2010 06:50 14,8 C 18,6 C 13,9 C 14,4 C 13,5 C 0,0 C 86 % 81 % 0 % 1010,4 hPa 0,0 l/m 0,2 km/h (0 Bft) N 360 0 min 0,0 UV-I 12,5 C 13,5 C 0,0 km/h (0 Bft)
30.07.2010 06:55 14,8 C 18,6 C 13,9 C 14,4 C 13,6 C 0,0 C 86 % 81 % 0 % 1010,4 hPa 0,0 l/m 0,2 km/h (0 Bft) S 180 0 min 0,0 UV-I 12,5 C 13,6 C 0,0 km/h (0 Bft)
30.07.2010 07:00 14,9 C 18,6 C 13,9 C 14,5 C 13,6 C 0,0 C 87 % 81 % 0 % 1010,8 hPa 0,0 l/m 0,2 km/h (0 Bft) S-SW 202 0 min 0,0 UV-I 12,8 C 13,6 C 0,0 km/h (0 Bft)
30.07.2010 07:07 14,9 C 18,6 C 13,9 C 14,5 C 13,6 C 0,0 C 86 % 81 % 0 % 1010,8 hPa 0,0 l/m 0,3 km/h (0 Bft) N 0 0 min 0,0 UV-I 12,6 C 13,6 C 2,4 km/h (1 Bft)
30.07.2010 07:10 14,9 C 18,6 C 13,9 C 14,5 C 13,6 C 0,0 C 86 % 81 % 0 % 1010,8 hPa 0,0 l/m 0,3 km/h (0 Bft) S-SO 157 0 min 0,0 UV-I 12,6 C 13,6 C 2,4 km/h (1 Bft)
30.07.2010 07:15 14,9 C 18,6 C 13,9 C 14,5 C 13,7 C 0,0 C 87 % 81 % 0 % 1010,8 hPa 0,0 l/m 0,5 km/h (0 Bft) S 180 0 min 0,0 UV-I 12,8 C 13,7 C 0,0 km/h (0 Bft)
30.07.2010 07:20 14,9 C 18,6 C 13,9 C 14,5 C 13,8 C 0,0 C 87 % 81 % 0 % 1010,9 hPa 0,0 l/m 0,8 km/h (0 Bft) SW 225 0 min 0,0 UV-I 12,8 C 13,8 C 1,6 km/h (1 Bft)
30.07.2010 07:25 15,1 C 18,6 C 13,9 C 14,7 C 13,9 C 0,0 C 87 % 81 % 0 % 1010,9 hPa 0,0 l/m 1,3 km/h (1 Bft) SW 225 0 min 0,0 UV-I 13,0 C 13,9 C 3,1 km/h (1 Bft)
30.07.2010 07:30 15,0 C 18,6 C 13,9 C 14,6 C 13,9 C 0,0 C 87 % 81 % 0 % 1010,9 hPa 0,0 l/m 1,8 km/h (1 Bft) S 180 0 min 0,0 UV-I 12,9 C 13,9 C 1,8 km/h (1 Bft)
30.07.2010 07:35 15,1 C 18,6 C 13,9 C 14,7 C 14,0 C 0,0 C 87 % 81 % 0 % 1010,9 hPa 0,0 l/m 1,1 km/h (1 Bft) S 180 0 min 0,0 UV-I 13,0 C 14,0 C 1,9 km/h (1 Bft)
30.07.2010 07:40 15,0 C 18,6 C 13,9 C 14,7 C 14,1 C 0,0 C 87 % 81 % 0 % 1011,4 hPa 0,0 l/m 0,6 km/h (0 Bft) O-SO 112 0 min 0,0 UV-I 12,9 C 14,1 C 0,0 km/h (0 Bft)
30.07.2010 07:45 15,1 C 18,6 C 13,9 C 14,8 C 14,3 C 0,0 C 87 % 81 % 0 % 1011,4 hPa 0,0 l/m 1,6 km/h (1 Bft) SW 225 0 min 0,0 UV-I 13,0 C 14,3 C 3,5 km/h (1 Bft)
30.07.2010 07:50 15,2 C 18,6 C 13,9 C 14,9 C 14,3 C 0,0 C 87 % 81 % 0 % 1011,4 hPa 0,0 l/m 2,1 km/h (1 Bft) SW 225 0 min 0,0 UV-I 13,0 C 14,3 C 0,0 km/h (0 Bft)
30.07.2010 07:55 15,2 C 18,6 C 13,9 C 15,0 C 14,5 C 0,0 C 86 % 81 % 0 % 1011,4 hPa 0,0 l/m 1,6 km/h (1 Bft) W-NW 292 0 min 0,1 UV-I 12,9 C 14,5 C 0,0 km/h (0 Bft)
30.07.2010 08:00 15,2 C 18,6 C 13,9 C 15,0 C 14,7 C 0,0 C 86 % 81 % 0 % 1011,4 hPa 0,0 l/m 0,8 km/h (0 Bft) W-SW 247 0 min 0,1 UV-I 12,9 C 14,7 C 3,2 km/h (1 Bft)
30.07.2010 08:07 15,3 C 18,4 C 14,3 C 15,2 C 15,0 C 0,0 C 86 % 81 % 0 % 1011,4 hPa 0,0 l/m 2,6 km/h (1 Bft) N 0 0 min 0,1 UV-I 13,0 C 15,0 C 3,4 km/h (1 Bft)
30.07.2010 08:10 15,3 C 18,4 C 14,3 C 15,2 C 15,0 C 0,0 C 86 % 81 % 0 % 1011,4 hPa 0,0 l/m 2,6 km/h (1 Bft) W-SW 247 0 min 0,1 UV-I 13,0 C 15,0 C 3,4 km/h (1 Bft)
30.07.2010 08:15 15,5 C 18,3 C 14,3 C 15,4 C 15,2 C 0,0 C 85 % 81 % 0 % 1011,4 hPa 0,0 l/m 2,6 km/h (1 Bft) S-SW 202 0 min 0,2 UV-I 13,0 C 15,2 C 5,5 km/h (1 Bft)
30.07.2010 08:20 15,5 C 18,3 C 14,3 C 15,5 C 15,4 C 0,0 C 85 % 81 % 0 % 1011,4 hPa 0,0 l/m 2,4 km/h (1 Bft) SW 225 0 min 0,2 UV-I 13,0 C 15,4 C 4,0 km/h (1 Bft)
30.07.2010 08:25 15,8 C 18,3 C 14,3 C 15,9 C 15,9 C 0,1 C 85 % 81 % 3 % 1011,4 hPa 0,0 l/m 1,9 km/h (1 Bft) SW 225 0 min 0,2 UV-I 13,3 C 15,9 C 2,3 km/h (1 Bft)
30.07.2010 08:30 16,1 C 18,3 C 14,3 C 18,4 C 18,4 C 2,3 C 85 % 81 % 61 % 1011,4 hPa 0,0 l/m 1,4 km/h (1 Bft) SW 225 0 min 0,3 UV-I 13,6 C 18,4 C 3,1 km/h (1 Bft)
30.07.2010 08:35 16,2 C 18,3 C 14,3 C 20,4 C 20,4 C 4,2 C 84 % 81 % 100 % 1011,4 hPa 0,0 l/m 0,8 km/h (0 Bft) S 180 5 min 0,3 UV-I 13,5 C 20,4 C 2,4 km/h (1 Bft)
30.07.2010 08:40 16,1 C 18,3 C 14,3 C 20,1 C 20,1 C 4,0 C 84 % 81 % 100 % 1011,6 hPa 0,0 l/m 1,1 km/h (1 Bft) S-SO 157 5 min 0,4 UV-I 13,4 C 20,1 C 3,4 km/h (1 Bft)
30.07.2010 08:45 16,1 C 18,3 C 14,3 C 19,0 C 19,0 C 2,9 C 84 % 81 % 76 % 1011,6 hPa 0,0 l/m 1,1 km/h (1 Bft) W-SW 247 0 min 0,3 UV-I 13,4 C 19,0 C 2,3 km/h (1 Bft)
30.07.2010 08:50 16,0 C 18,3 C 14,3 C 18,4 C 18,4 C 2,4 C 84 % 81 % 63 % 1011,6 hPa 0,0 l/m 1,0 km/h (0 Bft) S 180 0 min 0,3 UV-I 13,3 C 18,4 C 2,3 km/h (1 Bft)
30.07.2010 08:55 16,1 C 18,3 C 14,3 C 18,0 C 18,0 C 1,9 C 84 % 81 % 50 % 1011,6 hPa 0,0 l/m 0,8 km/h (0 Bft) W-SW 247 0 min 0,3 UV-I 13,4 C 18,0 C 2,3 km/h (1 Bft)
30.07.2010 09:00 16,3 C 18,3 C 14,3 C 18,0 C 18,0 C 1,7 C 84 % 81 % 45 % 1011,8 hPa 0,0 l/m 1,0 km/h (0 Bft) S 180 0 min 0,4 UV-I 13,6 C 18,0 C 3,7 km/h (1 Bft)
30.07.2010 09:07 16,3 C 18,3 C 14,3 C 18,3 C 18,3 C 2,0 C 83 % 81 % 53 % 1011,8 hPa 0,0 l/m 1,1 km/h (1 Bft) N 0 0 min 0,5 UV-I 13,4 C 18,3 C 0,0 km/h (0 Bft)
30.07.2010 09:10 16,3 C 18,3 C 14,3 C 18,3 C 18,3 C 2,0 C 83 % 81 % 53 % 1011,8 hPa 0,0 l/m 1,1 km/h (1 Bft) NO 45 0 min 0,5 UV-I 13,4 C 18,3 C 0,0 km/h (0 Bft)
30.07.2010 09:15 16,4 C 18,3 C 14,3 C 18,8 C 18,8 C 2,4 C 82 % 81 % 63 % 1011,8 hPa 0,0 l/m 0,5 km/h (0 Bft) S 180 0 min 0,5 UV-I 13,3 C 18,8 C 0,0 km/h (0 Bft)
30.07.2010 09:20 16,5 C 18,3 C 14,3 C 19,1 C 19,1 C 2,6 C 82 % 81 % 68 % 1011,8 hPa 0,0 l/m 0,0 km/h (0 Bft) NW 315 0 min 0,5 UV-I 13,4 C 19,1 C 0,0 km/h (0 Bft)
30.07.2010 09:25 16,4 C 18,3 C 14,3 C 19,3 C 19,3 C 2,9 C 83 % 81 % 76 % 1011,8 hPa 0,0 l/m 0,5 km/h (0 Bft) SW 225 0 min 0,5 UV-I 13,5 C 19,3 C 6,4 km/h (2 Bft)
30.07.2010 09:30 16,6 C 18,3 C 14,3 C 18,9 C 18,9 C 2,3 C 83 % 81 % 61 % 1011,8 hPa 0,0 l/m 1,6 km/h (1 Bft) W-NW 292 0 min 0,4 UV-I 13,7 C 18,9 C 0,0 km/h (0 Bft)
30.07.2010 09:35 16,7 C 18,3 C 14,3 C 18,8 C 18,8 C 2,1 C 82 % 81 % 55 % 1011,8 hPa 0,0 l/m 2,1 km/h (1 Bft) W-SW 247 0 min 0,5 UV-I 13,6 C 18,8 C 3,9 km/h (1 Bft)
30.07.2010 09:40 16,8 C 18,3 C 14,3 C 18,7 C 18,7 C 1,9 C 82 % 81 % 50 % 1012,0 hPa 0,0 l/m 1,9 km/h (1 Bft) S-SW 202 0 min 0,6 UV-I 13,7 C 18,7 C 4,5 km/h (1 Bft)
30.07.2010 09:45 16,9 C 18,3 C 14,3 C 18,7 C 18,7 C 1,8 C 82 % 81 % 47 % 1012,0 hPa 0,0 l/m 2,4 km/h (1 Bft) NO 45 0 min 0,7 UV-I 13,8 C 18,7 C 0,0 km/h (0 Bft)
30.07.2010 09:50 17,1 C 18,3 C 14,3 C 20,1 C 20,1 C 3,0 C 81 % 81 % 79 % 1012,0 hPa 0,0 l/m 1,9 km/h (1 Bft) W 270 0 min 0,9 UV-I 13,8 C 20,1 C 3,5 km/h (1 Bft)
30.07.2010 09:55 17,2 C 18,3 C 14,3 C 20,5 C 20,5 C 3,3 C 80 % 81 % 87 % 1012,0 hPa 0,0 l/m 2,7 km/h (1 Bft) NW 315 5 min 1,0 UV-I 13,7 C 20,5 C 2,3 km/h (1 Bft)
30.07.2010 10:00 17,5 C 18,3 C 14,3 C 20,9 C 20,9 C 3,4 C 80 % 81 % 89 % 1011,9 hPa 0,0 l/m 2,6 km/h (1 Bft) S 180 5 min 1,0 UV-I 14,0 C 20,9 C 2,1 km/h (1 Bft)
30.07.2010 10:07 17,9 C 18,2 C 14,3 C 22,1 C 22,1 C 4,2 C 79 % 81 % 100 % 1011,9 hPa 0,0 l/m 1,4 km/h (1 Bft) N 0 7 min 0,9 UV-I 14,2 C 22,1 C 1,9 km/h (1 Bft)
30.07.2010 10:10 17,9 C 18,2 C 14,3 C 22,1 C 22,1 C 4,2 C 79 % 81 % 100 % 1011,9 hPa 0,0 l/m 1,4 km/h (1 Bft) SW 225 3 min 0,9 UV-I 14,2 C 22,1 C 1,9 km/h (1 Bft)
30.07.2010 10:15 17,9 C 18,2 C 14,3 C 21,7 C 21,7 C 3,8 C 78 % 81 % 100 % 1011,9 hPa 0,0 l/m 3,1 km/h (1 Bft) W-SW 247 5 min 0,8 UV-I 14,0 C 21,7 C 6,6 km/h (2 Bft)
30.07.2010 10:20 17,7 C 18,3 C 14,3 C 21,3 C 21,3 C 3,6 C 78 % 81 % 95 % 1012,2 hPa 0,0 l/m 3,1 km/h (1 Bft) N 360 5 min 0,9 UV-I 13,8 C 21,3 C 4,3 km/h (1 Bft)
30.07.2010 10:25 17,8 C 18,3 C 14,3 C 20,7 C 20,7 C 2,9 C 77 % 81 % 76 % 1012,2 hPa 0,0 l/m 4,0 km/h (1 Bft) SW 225 0 min 1,0 UV-I 13,7 C 20,7 C 4,8 km/h (1 Bft)
30.07.2010 10:30 18,0 C 18,3 C 14,3 C 22,1 C 22,1 C 4,1 C 77 % 81 % 100 % 1012,2 hPa 0,0 l/m 3,9 km/h (1 Bft) W-SW 247 5 min 1,1 UV-I 13,9 C 22,1 C 3,5 km/h (1 Bft)
30.07.2010 10:35 18,3 C 18,3 C 14,3 C 23,6 C 23,6 C 5,3 C 76 % 81 % 100 % 1012,2 hPa 0,0 l/m 2,9 km/h (1 Bft) S-SW 202 5 min 1,3 UV-I 14,0 C 23,6 C 3,5 km/h (1 Bft)
30.07.2010 10:40 18,3 C 18,2 C 14,3 C 23,4 C 23,4 C 5,1 C 76 % 81 % 100 % 1012,1 hPa 0,0 l/m 2,9 km/h (1 Bft) W-SW 247 5 min 1,1 UV-I 14,0 C 23,4 C 5,8 km/h (2 Bft)
30.07.2010 10:45 18,0 C 18,3 C 14,3 C 21,6 C 21,6 C 3,6 C 75 % 81 % 95 % 1012,1 hPa 0,0 l/m 3,5 km/h (1 Bft) S 180 5 min 0,7 UV-I 13,5 C 21,6 C 7,6 km/h (2 Bft)
30.07.2010 10:50 18,0 C 18,3 C 14,3 C 20,5 C 20,5 C 2,5 C 75 % 81 % 66 % 1012,1 hPa 0,0 l/m 4,5 km/h (1 Bft) W 270 0 min 0,7 UV-I 13,5 C 20,5 C 3,5 km/h (1 Bft)
30.07.2010 10:55 18,0 C 18,3 C 14,3 C 19,7 C 19,7 C 1,7 C 74 % 81 % 45 % 1012,1 hPa 0,0 l/m 4,8 km/h (1 Bft) W-SW 247 0 min 0,9 UV-I 13,3 C 19,7 C 10,1 km/h (2 Bft)
30.07.2010 11:00 18,1 C 18,3 C 14,3 C 19,8 C 19,8 C 1,7 C 75 % 81 % 45 % 1012,3 hPa 0,0 l/m 3,9 km/h (1 Bft) S 180 0 min 1,2 UV-I 13,6 C 19,8 C 2,6 km/h (1 Bft)
30.07.2010 11:07 18,1 C 18,2 C 14,3 C 20,1 C 20,1 C 2,0 C 74 % 81 % 53 % 1012,3 hPa 0,0 l/m 2,9 km/h (1 Bft) N 0 0 min 1,3 UV-I 13,4 C 20,1 C 1,6 km/h (1 Bft)
30.07.2010 11:10 18,1 C 18,2 C 14,3 C 20,1 C 20,1 C 2,0 C 74 % 81 % 53 % 1012,3 hPa 0,0 l/m 2,9 km/h (1 Bft) SW 225 0 min 1,3 UV-I 13,4 C 20,1 C 1,6 km/h (1 Bft)
30.07.2010 11:15 18,3 C 18,2 C 14,3 C 20,3 C 20,3 C 2,0 C 74 % 81 % 53 % 1012,3 hPa 0,0 l/m 2,9 km/h (1 Bft) SW 225 0 min 1,2 UV-I 13,6 C 20,3 C 5,0 km/h (1 Bft)
30.07.2010 11:20 18,2 C 18,2 C 14,3 C 20,4 C 20,4 C 2,2 C 74 % 81 % 58 % 1012,6 hPa 0,0 l/m 3,2 km/h (1 Bft) SW 225 0 min 1,2 UV-I 13,5 C 20,4 C 2,7 km/h (1 Bft)
30.07.2010 11:25 18,3 C 18,2 C 14,3 C 20,1 C 20,1 C 1,8 C 74 % 81 % 47 % 1012,6 hPa 0,0 l/m 3,7 km/h (1 Bft) S 180 0 min 1,0 UV-I 13,6 C 20,1 C 6,4 km/h (2 Bft)
30.07.2010 11:30 18,1 C 18,3 C 14,3 C 19,9 C 19,9 C 1,8 C 74 % 81 % 47 % 1012,6 hPa 0,0 l/m 4,2 km/h (1 Bft) W-SW 247 0 min 1,0 UV-I 13,4 C 19,9 C 6,1 km/h (2 Bft)
30.07.2010 11:35 18,3 C 18,3 C 14,3 C 20,0 C 20,0 C 1,7 C 74 % 81 % 45 % 1012,6 hPa 0,0 l/m 4,3 km/h (1 Bft) SW 225 0 min 1,1 UV-I 13,6 C 20,0 C 3,2 km/h (1 Bft)
30.07.2010 11:40 18,3 C 18,2 C 14,3 C 20,1 C 20,1 C 1,8 C 74 % 81 % 47 % 1012,3 hPa 0,0 l/m 3,9 km/h (1 Bft) W-SW 247 0 min 1,3 UV-I 13,6 C 20,1 C 2,9 km/h (1 Bft)
30.07.2010 11:45 18,5 C 18,2 C 14,3 C 20,1 C 20,1 C 1,6 C 75 % 81 % 42 % 1012,3 hPa 0,0 l/m 5,0 km/h (1 Bft) SW 225 0 min 1,3 UV-I 14,0 C 20,1 C 3,9 km/h (1 Bft)
30.07.2010 11:50 18,4 C 18,2 C 14,3 C 20,0 C 20,0 C 1,6 C 75 % 81 % 42 % 1012,3 hPa 0,0 l/m 5,1 km/h (1 Bft) SW 225 0 min 1,3 UV-I 13,9 C 20,0 C 6,8 km/h (2 Bft)
30.07.2010 11:55 18,6 C 18,3 C 14,3 C 20,1 C 20,1 C 1,5 C 75 % 81 % 39 % 1012,3 hPa 0,0 l/m 5,3 km/h (1 Bft) W-SW 247 0 min 1,2 UV-I 14,1 C 20,1 C 10,5 km/h (2 Bft)
30.07.2010 12:00 18,5 C 18,3 C 14,3 C 20,3 C 20,3 C 1,8 C 74 % 81 % 47 % 1012,5 hPa 0,0 l/m 5,6 km/h (1 Bft) S 180 0 min 1,5 UV-I 13,8 C 20,3 C 7,7 km/h (2 Bft)
30.07.2010 12:07 18,7 C 18,3 C 14,3 C 20,9 C 20,9 C 2,2 C 72 % 81 % 58 % 1012,5 hPa 0,0 l/m 5,0 km/h (1 Bft) N 0 0 min 1,7 UV-I 13,5 C 20,9 C 8,2 km/h (2 Bft)
30.07.2010 12:10 18,7 C 18,3 C 14,3 C 20,9 C 20,9 C 2,2 C 72 % 81 % 58 % 1012,5 hPa 0,0 l/m 5,0 km/h (1 Bft) S 180 0 min 1,7 UV-I 13,5 C 20,9 C 8,2 km/h (2 Bft)
30.07.2010 12:15 18,9 C 18,3 C 14,3 C 21,5 C 21,5 C 2,6 C 69 % 81 % 68 % 1012,5 hPa 0,0 l/m 3,4 km/h (1 Bft) S 180 0 min 1,9 UV-I 13,1 C 21,5 C 2,1 km/h (1 Bft)
30.07.2010 12:20 19,0 C 18,3 C 14,3 C 22,4 C 22,4 C 3,4 C 69 % 81 % 89 % 1012,2 hPa 0,0 l/m 2,7 km/h (1 Bft) W 270 5 min 2,3 UV-I 13,2 C 22,4 C 4,3 km/h (1 Bft)
30.07.2010 12:25 18,8 C 18,3 C 14,3 C 22,5 C 22,5 C 3,7 C 70 % 81 % 97 % 1012,2 hPa 0,0 l/m 2,7 km/h (1 Bft) SW 225 5 min 2,3 UV-I 13,2 C 22,5 C 6,6 km/h (2 Bft)
30.07.2010 12:30 18,7 C 18,3 C 14,3 C 21,6 C 21,6 C 2,9 C 70 % 81 % 76 % 1012,2 hPa 0,0 l/m 4,0 km/h (1 Bft) SW 225 0 min 1,5 UV-I 13,1 C 21,6 C 7,7 km/h (2 Bft)
30.07.2010 12:35 18,8 C 18,3 C 14,3 C 21,0 C 21,0 C 2,2 C 70 % 81 % 58 % 1012,2 hPa 0,0 l/m 4,7 km/h (1 Bft) S-SW 202 0 min 1,8 UV-I 13,2 C 21,0 C 10,8 km/h (2 Bft)
30.07.2010 12:40 19,0 C 18,3 C 14,3 C 21,6 C 21,6 C 2,6 C 70 % 81 % 68 % 1012,4 hPa 0,0 l/m 4,2 km/h (1 Bft) S-SW 202 0 min 2,6 UV-I 13,4 C 21,6 C 5,6 km/h (1 Bft)
30.07.2010 12:45 19,4 C 18,3 C 14,3 C 23,2 C 23,2 C 3,8 C 69 % 81 % 100 % 1012,4 hPa 0,0 l/m 2,9 km/h (1 Bft) S-SW 202 5 min 3,2 UV-I 13,6 C 23,2 C 0,0 km/h (0 Bft)
30.07.2010 12:50 19,6 C 18,3 C 14,3 C 24,4 C 24,4 C 4,8 C 68 % 81 % 100 % 1012,4 hPa 0,0 l/m 2,1 km/h (1 Bft) W 270 5 min 3,4 UV-I 13,5 C 24,4 C 0,0 km/h (0 Bft)
30.07.2010 12:55 19,7 C 18,3 C 14,3 C 25,5 C 25,5 C 5,8 C 67 % 81 % 100 % 1012,4 hPa 0,0 l/m 1,9 km/h (1 Bft) W-SW 247 5 min 3,6 UV-I 13,4 C 25,5 C 6,4 km/h (2 Bft)
30.07.2010 13:00 19,7 C 18,3 C 14,3 C 24,6 C 24,6 C 4,9 C 67 % 81 % 100 % 1012,3 hPa 0,0 l/m 2,7 km/h (1 Bft) W-SW 247 5 min 2,3 UV-I 13,4 C 24,6 C 3,4 km/h (1 Bft)
30.07.2010 13:07 19,7 C 18,3 C 14,3 C 22,9 C 22,9 C 3,2 C 67 % 81 % 84 % 1012,3 hPa 0,0 l/m 3,5 km/h (1 Bft) N 0 0 min 1,8 UV-I 13,4 C 22,9 C 3,7 km/h (1 Bft)
30.07.2010 13:10 19,7 C 18,3 C 14,3 C 22,9 C 22,9 C 3,2 C 67 % 81 % 84 % 1012,3 hPa 0,0 l/m 3,5 km/h (1 Bft) W-NW 292 0 min 1,8 UV-I 13,4 C 22,9 C 3,7 km/h (1 Bft)
30.07.2010 13:15 19,7 C 18,3 C 14,3 C 22,6 C 22,6 C 2,9 C 66 % 81 % 76 % 1012,3 hPa 0,0 l/m 2,9 km/h (1 Bft) S 180 0 min 1,7 UV-I 13,2 C 22,6 C 0,0 km/h (0 Bft)
30.07.2010 13:20 19,5 C 18,3 C 14,3 C 22,6 C 22,6 C 3,1 C 66 % 81 % 82 % 1012,4 hPa 0,0 l/m 2,1 km/h (1 Bft) W-SW 247 0 min 1,7 UV-I 13,0 C 22,6 C 5,1 km/h (1 Bft)
30.07.2010 13:25 19,5 C 18,3 C 14,3 C 22,2 C 22,2 C 2,7 C 66 % 81 % 71 % 1012,4 hPa 0,0 l/m 3,1 km/h (1 Bft) S 180 0 min 1,7 UV-I 13,0 C 22,2 C 5,5 km/h (1 Bft)
30.07.2010 13:30 19,7 C 18,3 C 14,3 C 21,9 C 21,9 C 2,2 C 65 % 81 % 58 % 1012,4 hPa 0,0 l/m 5,6 km/h (1 Bft) SW 225 0 min 1,6 UV-I 12,9 C 21,9 C 5,1 km/h (1 Bft)
30.07.2010 13:35 19,9 C 18,3 C 14,3 C 22,4 C 22,4 C 2,5 C 64 % 81 % 66 % 1012,4 hPa 0,0 l/m 6,0 km/h (2 Bft) W-SW 247 0 min 2,1 UV-I 12,9 C 22,4 C 13,2 km/h (3 Bft)
30.07.2010 13:40 19,9 C 18,3 C 14,3 C 23,1 C 23,1 C 3,2 C 63 % 81 % 84 % 1012,1 hPa 0,0 l/m 4,5 km/h (1 Bft) SW 225 0 min 3,1 UV-I 12,6 C 23,1 C 0,0 km/h (0 Bft)
30.07.2010 13:45 20,3 C 18,3 C 14,3 C 23,9 C 23,9 C 3,6 C 63 % 81 % 95 % 1012,1 hPa 0,0 l/m 3,4 km/h (1 Bft) W-SW 247 5 min 2,7 UV-I 13,0 C 23,9 C 6,4 km/h (2 Bft)
30.07.2010 13:50 20,1 C 18,3 C 14,3 C 24,1 C 24,1 C 4,0 C 63 % 81 % 100 % 1012,1 hPa 0,0 l/m 2,6 km/h (1 Bft) N-NO 22 5 min 2,4 UV-I 12,8 C 24,1 C 3,7 km/h (1 Bft)
30.07.2010 13:55 20,1 C 18,3 C 14,3 C 23,4 C 23,4 C 3,3 C 64 % 81 % 87 % 1012,1 hPa 0,0 l/m 3,9 km/h (1 Bft) SW 225 5 min 1,5 UV-I 13,1 C 23,4 C 5,8 km/h (2 Bft)
30.07.2010 14:00 19,9 C 18,3 C 14,3 C 22,7 C 22,7 C 2,8 C 65 % 81 % 74 % 1012,6 hPa 0,0 l/m 5,1 km/h (1 Bft) N 360 0 min 1,1 UV-I 13,1 C 22,7 C 10,9 km/h (2 Bft)
30.07.2010 14:07 20,3 C 18,4 C 14,3 C 22,9 C 22,9 C 2,6 C 65 % 81 % 68 % 1012,6 hPa 0,0 l/m 5,1 km/h (1 Bft) N 0 0 min 2,1 UV-I 13,5 C 22,9 C 7,4 km/h (2 Bft)
30.07.2010 14:10 20,3 C 18,4 C 14,3 C 22,9 C 22,9 C 2,6 C 65 % 81 % 68 % 1012,6 hPa 0,0 l/m 5,1 km/h (1 Bft) SW 225 0 min 2,1 UV-I 13,5 C 22,9 C 7,4 km/h (2 Bft)
30.07.2010 14:15 20,6 C 18,4 C 14,3 C 24,1 C 24,1 C 3,5 C 65 % 81 % 92 % 1012,6 hPa 0,0 l/m 5,3 km/h (1 Bft) W 270 5 min 2,9 UV-I 13,8 C 24,1 C 7,2 km/h (2 Bft)
30.07.2010 14:20 20,6 C 18,4 C 14,3 C 24,2 C 24,2 C 3,6 C 65 % 81 % 95 % 1012,8 hPa 0,0 l/m 5,3 km/h (1 Bft) W-SW 247 5 min 2,7 UV-I 13,8 C 24,2 C 7,6 km/h (2 Bft)
30.07.2010 14:25 20,5 C 18,4 C 14,3 C 24,0 C 24,0 C 3,5 C 64 % 81 % 92 % 1012,8 hPa 0,0 l/m 4,8 km/h (1 Bft) S 180 5 min 2,3 UV-I 13,5 C 24,0 C 5,5 km/h (1 Bft)
30.07.2010 14:30 20,5 C 18,4 C 14,3 C 23,6 C 23,6 C 3,1 C 64 % 81 % 82 % 1012,8 hPa 0,0 l/m 4,2 km/h (1 Bft) SW 225 0 min 2,0 UV-I 13,5 C 23,6 C 4,2 km/h (1 Bft)
30.07.2010 14:35 20,3 C 18,4 C 14,3 C 23,0 C 23,0 C 2,7 C 64 % 81 % 71 % 1012,8 hPa 0,0 l/m 3,9 km/h (1 Bft) SW 225 0 min 1,6 UV-I 13,3 C 23,0 C 7,7 km/h (2 Bft)
30.07.2010 14:40 20,4 C 18,4 C 14,3 C 22,8 C 22,8 C 2,4 C 64 % 81 % 63 % 1012,7 hPa 0,0 l/m 4,0 km/h (1 Bft) S 180 0 min 1,6 UV-I 13,4 C 22,8 C 2,1 km/h (1 Bft)
30.07.2010 14:45 20,4 C 18,4 C 14,3 C 22,8 C 22,8 C 2,4 C 64 % 81 % 63 % 1012,7 hPa 0,0 l/m 3,9 km/h (1 Bft) W-SW 247 0 min 1,7 UV-I 13,4 C 22,8 C 5,0 km/h (1 Bft)
30.07.2010 14:50 20,7 C 18,4 C 14,3 C 23,2 C 23,2 C 2,5 C 63 % 81 % 66 % 1012,7 hPa 0,0 l/m 3,9 km/h (1 Bft) S-SW 202 0 min 1,9 UV-I 13,4 C 23,2 C 6,1 km/h (2 Bft)
30.07.2010 14:55 21,1 C 18,4 C 14,3 C 24,8 C 24,8 C 3,7 C 61 % 81 % 97 % 1012,7 hPa 0,0 l/m 3,9 km/h (1 Bft) SW 225 5 min 3,0 UV-I 13,3 C 24,8 C 3,9 km/h (1 Bft)
30.07.2010 15:00 21,3 C 18,4 C 14,3 C 26,1 C 26,1 C 4,8 C 60 % 81 % 100 % 1012,5 hPa 0,0 l/m 3,7 km/h (1 Bft) W 270 5 min 3,4 UV-I 13,2 C 26,1 C 4,8 km/h (1 Bft)
30.07.2010 15:07 21,2 C 18,5 C 14,3 C 26,4 C 26,4 C 5,2 C 57 % 81 % 100 % 1012,5 hPa 0,0 l/m 3,2 km/h (1 Bft) N 0 7 min 2,9 UV-I 12,3 C 26,4 C 3,2 km/h (1 Bft)
30.07.2010 15:10 21,2 C 18,5 C 14,3 C 26,4 C 26,4 C 5,2 C 57 % 81 % 100 % 1012,5 hPa 0,0 l/m 3,2 km/h (1 Bft) SW 225 3 min 2,9 UV-I 12,3 C 26,4 C 3,2 km/h (1 Bft)
30.07.2010 15:15 21,6 C 18,5 C 14,3 C 26,1 C 26,1 C 4,5 C 56 % 81 % 100 % 1012,5 hPa 0,0 l/m 3,2 km/h (1 Bft) S-SW 202 5 min 2,3 UV-I 12,4 C 26,1 C 8,0 km/h (2 Bft)
30.07.2010 15:20 21,5 C 18,5 C 14,3 C 25,9 C 25,9 C 4,4 C 57 % 81 % 100 % 1012,8 hPa 0,0 l/m 4,7 km/h (1 Bft) O-SO 112 5 min 2,5 UV-I 12,6 C 25,9 C 5,1 km/h (1 Bft)
30.07.2010 15:25 21,5 C 18,5 C 14,3 C 24,7 C 24,7 C 3,2 C 59 % 81 % 84 % 1012,8 hPa 0,0 l/m 4,0 km/h (1 Bft) O-NO 67 0 min 1,8 UV-I 13,1 C 24,7 C 1,8 km/h (1 Bft)
30.07.2010 15:30 21,3 C 18,5 C 14,3 C 24,9 C 24,9 C 3,6 C 59 % 81 % 95 % 1012,8 hPa 0,0 l/m 2,1 km/h (1 Bft) O-SO 112 5 min 2,1 UV-I 13,0 C 24,9 C 2,1 km/h (1 Bft)
30.07.2010 15:35 21,2 C 18,5 C 14,3 C 24,3 C 24,3 C 3,1 C 59 % 81 % 82 % 1012,8 hPa 0,0 l/m 1,1 km/h (1 Bft) O 90 0 min 1,4 UV-I 12,9 C 24,3 C 2,3 km/h (1 Bft)
30.07.2010 15:40 21,3 C 18,5 C 14,3 C 23,9 C 23,9 C 2,6 C 60 % 81 % 68 % 1012,8 hPa 0,0 l/m 1,6 km/h (1 Bft) S-SO 157 0 min 1,2 UV-I 13,2 C 23,9 C 3,7 km/h (1 Bft)
30.07.2010 15:45 21,9 C 18,5 C 14,3 C 24,9 C 24,9 C 3,0 C 60 % 81 % 79 % 1012,8 hPa 0,0 l/m 2,1 km/h (1 Bft) S 180 0 min 2,0 UV-I 13,8 C 24,9 C 5,5 km/h (1 Bft)
30.07.2010 15:50 21,8 C 18,5 C 14,3 C 25,6 C 25,6 C 3,8 C 59 % 81 % 100 % 1012,8 hPa 0,0 l/m 1,9 km/h (1 Bft) O-NO 67 5 min 2,3 UV-I 13,4 C 25,6 C 0,0 km/h (0 Bft)
30.07.2010 15:55 22,0 C 18,5 C 14,3 C 25,7 C 25,7 C 3,7 C 60 % 81 % 97 % 1012,8 hPa 0,0 l/m 1,6 km/h (1 Bft) S 180 5 min 1,6 UV-I 13,9 C 25,7 C 6,1 km/h (2 Bft)
30.07.2010 16:00 22,2 C 18,5 C 14,3 C 26,4 C 26,4 C 4,2 C 56 % 81 % 100 % 1012,7 hPa 0,0 l/m 1,3 km/h (1 Bft) O-SO 112 5 min 2,0 UV-I 13,0 C 26,4 C 0,0 km/h (0 Bft)
30.07.2010 16:07 21,8 C 18,5 C 14,3 C 26,3 C 26,3 C 4,5 C 58 % 81 % 100 % 1012,7 hPa 0,0 l/m 1,3 km/h (1 Bft) N 0 7 min 1,5 UV-I 13,2 C 26,3 C 3,5 km/h (1 Bft)
30.07.2010 16:10 21,8 C 18,5 C 14,3 C 26,3 C 26,3 C 4,5 C 58 % 81 % 100 % 1012,7 hPa 0,0 l/m 1,3 km/h (1 Bft) NO 45 3 min 1,5 UV-I 13,2 C 26,3 C 3,5 km/h (1 Bft)
30.07.2010 16:15 21,8 C 18,5 C 14,3 C 25,5 C 25,5 C 3,7 C 58 % 81 % 97 % 1012,7 hPa 0,0 l/m 2,1 km/h (1 Bft) N-NO 22 5 min 1,1 UV-I 13,2 C 25,5 C 2,1 km/h (1 Bft)
30.07.2010 16:20 21,9 C 18,5 C 14,3 C 25,6 C 25,6 C 3,7 C 59 % 81 % 97 % 1012,2 hPa 0,0 l/m 2,3 km/h (1 Bft) O-NO 67 5 min 1,3 UV-I 13,5 C 25,6 C 2,1 km/h (1 Bft)
30.07.2010 16:25 21,6 C 18,5 C 14,3 C 24,8 C 24,8 C 3,2 C 58 % 81 % 84 % 1012,2 hPa 0,0 l/m 2,1 km/h (1 Bft) NO 45 0 min 0,7 UV-I 13,0 C 24,8 C 1,8 km/h (1 Bft)
30.07.2010 16:30 21,6 C 18,7 C 14,3 C 24,6 C 24,6 C 3,0 C 58 % 81 % 79 % 1012,2 hPa 0,0 l/m 1,6 km/h (1 Bft) N-NW 337 0 min 0,8 UV-I 13,0 C 24,6 C 3,7 km/h (1 Bft)
30.07.2010 16:35 21,9 C 18,8 C 14,3 C 24,8 C 24,8 C 2,9 C 57 % 81 % 76 % 1012,2 hPa 0,0 l/m 2,3 km/h (1 Bft) W-SW 247 0 min 0,9 UV-I 13,0 C 24,8 C 1,8 km/h (1 Bft)
30.07.2010 16:40 22,1 C 18,8 C 14,3 C 25,5 C 25,5 C 3,4 C 57 % 81 % 89 % 1012,9 hPa 0,0 l/m 2,4 km/h (1 Bft) W-SW 247 5 min 1,3 UV-I 13,2 C 25,5 C 2,1 km/h (1 Bft)
30.07.2010 16:45 22,0 C 18,8 C 14,3 C 25,5 C 25,5 C 3,5 C 57 % 81 % 92 % 1012,9 hPa 0,0 l/m 3,5 km/h (1 Bft) SW 225 5 min 1,3 UV-I 13,1 C 25,5 C 7,9 km/h (2 Bft)
30.07.2010 16:50 22,2 C 18,8 C 14,3 C 25,3 C 25,3 C 3,1 C 56 % 81 % 82 % 1012,9 hPa 0,0 l/m 4,8 km/h (1 Bft) S 180 0 min 1,2 UV-I 13,0 C 25,3 C 6,9 km/h (2 Bft)
30.07.2010 16:55 22,1 C 18,8 C 14,3 C 24,8 C 24,8 C 2,7 C 56 % 81 % 71 % 1012,9 hPa 0,0 l/m 5,3 km/h (1 Bft) W-SW 247 0 min 1,2 UV-I 12,9 C 24,8 C 9,3 km/h (2 Bft)
30.07.2010 17:00 21,8 C 18,8 C 14,3 C 24,3 C 24,3 C 2,5 C 57 % 81 % 66 % 1013,1 hPa 0,0 l/m 4,8 km/h (1 Bft) S-SW 202 0 min 0,9 UV-I 12,9 C 24,3 C 11,1 km/h (2 Bft)
30.07.2010 17:07 21,7 C 18,9 C 14,3 C 23,3 C 23,3 C 1,6 C 57 % 81 % 42 % 1013,1 hPa 0,0 l/m 4,0 km/h (1 Bft) N 0 0 min 0,7 UV-I 12,8 C 23,3 C 5,5 km/h (1 Bft)
30.07.2010 17:10 21,7 C 18,9 C 14,3 C 23,3 C 23,3 C 1,6 C 57 % 81 % 42 % 1013,1 hPa 0,0 l/m 4,0 km/h (1 Bft) W-SW 247 0 min 0,7 UV-I 12,8 C 23,3 C 5,5 km/h (1 Bft)
30.07.2010 17:15 21,6 C 18,9 C 14,3 C 23,1 C 23,1 C 1,5 C 57 % 81 % 39 % 1013,1 hPa 0,0 l/m 2,9 km/h (1 Bft) W-SW 247 0 min 0,7 UV-I 12,7 C 23,1 C 0,0 km/h (0 Bft)
30.07.2010 17:20 21,7 C 18,9 C 14,3 C 23,1 C 23,1 C 1,4 C 58 % 81 % 37 % 1012,9 hPa 0,0 l/m 2,3 km/h (1 Bft) O-NO 67 0 min 0,7 UV-I 13,1 C 23,1 C 4,0 km/h (1 Bft)
30.07.2010 17:25 21,5 C 18,9 C 14,3 C 22,9 C 22,9 C 1,4 C 57 % 81 % 37 % 1012,9 hPa 0,0 l/m 1,9 km/h (1 Bft) W-SW 247 0 min 0,6 UV-I 12,6 C 22,9 C 0,0 km/h (0 Bft)
30.07.2010 17:30 21,5 C 18,9 C 14,3 C 22,8 C 22,8 C 1,3 C 57 % 81 % 34 % 1012,9 hPa 0,0 l/m 2,3 km/h (1 Bft) SW 225 0 min 0,5 UV-I 12,6 C 22,8 C 4,8 km/h (1 Bft)
30.07.2010 17:35 21,4 C 18,9 C 14,3 C 22,6 C 22,6 C 1,2 C 57 % 81 % 32 % 1012,9 hPa 0,0 l/m 2,9 km/h (1 Bft) S-SW 202 0 min 0,5 UV-I 12,5 C 22,6 C 5,6 km/h (1 Bft)
30.07.2010 17:40 21,5 C 18,9 C 14,3 C 22,6 C 22,6 C 1,1 C 57 % 81 % 29 % 1012,8 hPa 0,0 l/m 3,2 km/h (1 Bft) W-SW 247 0 min 0,4 UV-I 12,6 C 22,6 C 2,6 km/h (1 Bft)
30.07.2010 17:45 21,5 C 18,9 C 14,3 C 22,6 C 22,6 C 1,1 C 57 % 81 % 29 % 1012,8 hPa 0,0 l/m 2,6 km/h (1 Bft) N-NO 22 0 min 0,4 UV-I 12,6 C 22,6 C 2,6 km/h (1 Bft)
30.07.2010 17:50 21,5 C 18,9 C 14,3 C 22,7 C 22,7 C 1,2 C 57 % 81 % 32 % 1012,8 hPa 0,0 l/m 2,6 km/h (1 Bft) SW 225 0 min 0,4 UV-I 12,6 C 22,7 C 5,1 km/h (1 Bft)
30.07.2010 17:55 21,6 C 18,9 C 14,3 C 22,8 C 22,8 C 1,2 C 57 % 81 % 32 % 1012,8 hPa 0,0 l/m 3,4 km/h (1 Bft) SW 225 0 min 0,4 UV-I 12,7 C 22,8 C 6,3 km/h (2 Bft)
30.07.2010 18:00 21,6 C 18,9 C 14,3 C 22,8 C 22,8 C 1,2 C 56 % 81 % 32 % 1013,4 hPa 0,0 l/m 4,2 km/h (1 Bft) S 180 0 min 0,4 UV-I 12,4 C 22,8 C 4,7 km/h (1 Bft)
30.07.2010 18:07 22,4 C 19,0 C 14,3 C 24,1 C 24,1 C 1,7 C 55 % 81 % 45 % 1013,4 hPa 0,0 l/m 2,4 km/h (1 Bft) N 0 0 min 0,3 UV-I 12,9 C 24,1 C 3,2 km/h (1 Bft)
30.07.2010 18:10 22,4 C 19,0 C 14,3 C 24,1 C 24,1 C 1,7 C 55 % 81 % 45 % 1013,4 hPa 0,0 l/m 2,4 km/h (1 Bft) SW 225 0 min 0,3 UV-I 12,9 C 24,1 C 3,2 km/h (1 Bft)
30.07.2010 18:15 22,9 C 19,0 C 14,3 C 25,5 C 25,5 C 2,6 C 54 % 81 % 68 % 1013,4 hPa 0,0 l/m 2,7 km/h (1 Bft) S 180 0 min 0,4 UV-I 13,1 C 25,5 C 3,2 km/h (1 Bft)
30.07.2010 18:20 23,0 C 19,0 C 14,3 C 25,9 C 25,9 C 2,9 C 52 % 81 % 76 % 1013,4 hPa 0,0 l/m 3,2 km/h (1 Bft) S 180 0 min 0,4 UV-I 12,6 C 25,9 C 6,8 km/h (2 Bft)
30.07.2010 18:25 22,4 C 19,0 C 14,3 C 25,8 C 25,8 C 3,4 C 52 % 81 % 89 % 1013,4 hPa 0,0 l/m 3,2 km/h (1 Bft) SW 225 5 min 0,4 UV-I 12,1 C 25,8 C 5,1 km/h (1 Bft)
30.07.2010 18:30 22,4 C 19,0 C 14,3 C 24,7 C 24,7 C 2,3 C 52 % 81 % 61 % 1013,4 hPa 0,0 l/m 3,2 km/h (1 Bft) SW 225 0 min 0,3 UV-I 12,1 C 24,7 C 4,5 km/h (1 Bft)
30.07.2010 18:35 22,9 C 19,0 C 14,3 C 24,8 C 24,8 C 1,9 C 51 % 81 % 50 % 1013,4 hPa 0,0 l/m 4,2 km/h (1 Bft) S 180 0 min 0,2 UV-I 12,2 C 24,8 C 8,2 km/h (2 Bft)
30.07.2010 18:40 22,7 C 19,0 C 14,3 C 24,9 C 24,9 C 2,2 C 51 % 81 % 58 % 1013,3 hPa 0,0 l/m 4,5 km/h (1 Bft) SW 225 0 min 0,2 UV-I 12,0 C 24,9 C 3,4 km/h (1 Bft)
30.07.2010 18:45 22,3 C 19,0 C 14,3 C 23,9 C 23,9 C 1,6 C 52 % 81 % 42 % 1013,3 hPa 0,0 l/m 4,2 km/h (1 Bft) W-SW 247 0 min 0,1 UV-I 12,0 C 23,9 C 3,4 km/h (1 Bft)
30.07.2010 18:50 22,1 C 19,0 C 14,3 C 23,4 C 23,4 C 1,3 C 54 % 81 % 34 % 1013,3 hPa 0,0 l/m 3,1 km/h (1 Bft) N 360 0 min 0,1 UV-I 12,3 C 23,4 C 2,4 km/h (1 Bft)
30.07.2010 18:55 21,9 C 19,0 C 14,3 C 22,4 C 22,4 C 0,5 C 55 % 81 % 13 % 1013,3 hPa 0,0 l/m 1,1 km/h (1 Bft) O-NO 67 0 min 0,1 UV-I 12,4 C 22,4 C 0,0 km/h (0 Bft)
30.07.2010 19:00 21,9 C 19,0 C 14,3 C 22,0 C 22,0 C 0,1 C 57 % 81 % 3 % 1012,9 hPa 0,0 l/m 0,3 km/h (0 Bft) O-NO 67 0 min 0,1 UV-I 13,0 C 22,0 C 0,0 km/h (0 Bft)
30.07.2010 19:07 21,7 C 19,0 C 14,3 C 21,6 C 21,3 C 0,0 C 58 % 81 % 0 % 1012,9 hPa 0,0 l/m 0,5 km/h (0 Bft) W-SW 247 0 min 0,0 UV-I 13,1 C 21,3 C 2,9 km/h (1 Bft)
30.07.2010 19:10 21,7 C 19,0 C 14,3 C 21,6 C 21,3 C 0,0 C 58 % 81 % 0 % 1012,9 hPa 0,0 l/m 0,5 km/h (0 Bft) W-SW 247 0 min 0,0 UV-I 13,1 C 21,3 C 2,9 km/h (1 Bft)
30.07.2010 19:15 21,6 C 19,0 C 14,3 C 21,5 C 21,2 C 0,0 C 58 % 81 % 0 % 1012,9 hPa 0,0 l/m 1,3 km/h (1 Bft) W-SW 247 0 min 0,0 UV-I 13,0 C 21,2 C 2,3 km/h (1 Bft)
30.07.2010 19:20 21,7 C 19,0 C 14,3 C 21,5 C 21,2 C 0,0 C 57 % 81 % 0 % 1013,2 hPa 0,0 l/m 1,4 km/h (1 Bft) SW 225 0 min 0,0 UV-I 12,8 C 21,2 C 3,5 km/h (1 Bft)
30.07.2010 19:25 21,5 C 19,0 C 14,3 C 21,4 C 21,2 C 0,0 C 56 % 81 % 0 % 1013,2 hPa 0,0 l/m 1,9 km/h (1 Bft) W-SW 247 0 min 0,0 UV-I 12,3 C 21,2 C 0,0 km/h (0 Bft)
30.07.2010 19:30 21,4 C 19,0 C 14,3 C 21,3 C 21,1 C 0,0 C 56 % 81 % 0 % 1013,2 hPa 0,0 l/m 2,1 km/h (1 Bft) S-SW 202 0 min 0,0 UV-I 12,3 C 21,1 C 2,3 km/h (1 Bft)
30.07.2010 19:35 21,5 C 19,1 C 14,3 C 21,3 C 21,0 C 0,0 C 57 % 81 % 0 % 1013,2 hPa 0,0 l/m 1,1 km/h (1 Bft) S 180 0 min 0,0 UV-I 12,6 C 21,0 C 0,0 km/h (0 Bft)
30.07.2010 19:40 21,4 C 19,1 C 14,3 C 21,3 C 21,0 C 0,0 C 58 % 81 % 0 % 1013,6 hPa 0,0 l/m 0,5 km/h (0 Bft) S 180 0 min 0,0 UV-I 12,8 C 21,0 C 0,0 km/h (0 Bft)
30.07.2010 19:45 22,0 C 19,1 C 14,3 C 21,9 C 21,6 C 0,0 C 57 % 81 % 0 % 1013,6 hPa 0,0 l/m 0,2 km/h (0 Bft) S 180 0 min 0,0 UV-I 13,1 C 21,6 C 0,0 km/h (0 Bft)
30.07.2010 19:50 22,3 C 19,1 C 14,3 C 22,6 C 22,6 C 0,3 C 57 % 81 % 8 % 1013,6 hPa 0,0 l/m 1,0 km/h (0 Bft) SW 225 0 min 0,0 UV-I 13,4 C 22,6 C 1,9 km/h (1 Bft)
30.07.2010 19:55 21,9 C 19,1 C 14,3 C 23,0 C 23,0 C 1,1 C 57 % 81 % 29 % 1013,6 hPa 0,0 l/m 1,0 km/h (0 Bft) S 180 0 min 0,0 UV-I 13,0 C 23,0 C 0,0 km/h (0 Bft)
30.07.2010 20:00 21,6 C 19,1 C 14,3 C 22,7 C 22,7 C 1,1 C 57 % 81 % 29 % 1013,8 hPa 0,0 l/m 0,5 km/h (0 Bft) S 180 0 min 0,0 UV-I 12,7 C 22,7 C 0,0 km/h (0 Bft)
30.07.2010 20:07 21,1 C 19,1 C 14,3 C 21,1 C 21,1 C 0,0 C 59 % 81 % 0 % 1013,8 hPa 0,0 l/m 0,0 km/h (0 Bft) N 0 0 min 0,0 UV-I 12,8 C 21,1 C 0,0 km/h (0 Bft)
30.07.2010 20:10 21,1 C 19,1 C 14,3 C 21,1 C 21,1 C 0,0 C 59 % 81 % 0 % 1013,8 hPa 0,0 l/m 0,0 km/h (0 Bft) S 180 0 min 0,0 UV-I 12,8 C 21,1 C 0,0 km/h (0 Bft)
30.07.2010 20:15 20,6 C 19,1 C 14,3 C 20,4 C 20,1 C 0,0 C 61 % 81 % 0 % 1013,8 hPa 0,0 l/m 0,0 km/h (0 Bft) S 180 0 min 0,0 UV-I 12,8 C 20,1 C 0,0 km/h (0 Bft)
30.07.2010 20:20 20,4 C 19,1 C 14,3 C 20,1 C 19,5 C 0,0 C 63 % 81 % 0 % 1013,9 hPa 0,0 l/m 0,0 km/h (0 Bft) S 180 0 min 0,0 UV-I 13,1 C 19,5 C 0,0 km/h (0 Bft)
30.07.2010 20:25 20,2 C 19,1 C 14,3 C 19,8 C 18,9 C 0,0 C 64 % 81 % 0 % 1013,9 hPa 0,0 l/m 0,0 km/h (0 Bft) S 180 0 min 0,0 UV-I 13,2 C 18,9 C 0,0 km/h (0 Bft)
30.07.2010 20:30 20,3 C 19,1 C 14,3 C 19,7 C 18,4 C 0,0 C 65 % 81 % 0 % 1013,9 hPa 0,0 l/m 0,0 km/h (0 Bft) S 180 0 min 0,0 UV-I 13,5 C 18,4 C 0,0 km/h (0 Bft)
30.07.2010 20:35 20,1 C 19,1 C 14,3 C 19,4 C 17,9 C 0,0 C 66 % 81 % 0 % 1013,9 hPa 0,0 l/m 0,0 km/h (0 Bft) S 180 0 min 0,0 UV-I 13,5 C 17,9 C 0,0 km/h (0 Bft)
30.07.2010 20:40 19,9 C 19,1 C 14,3 C 19,1 C 17,6 C 0,0 C 68 % 81 % 0 % 1014,1 hPa 0,0 l/m 0,0 km/h (0 Bft) S 180 0 min 0,0 UV-I 13,8 C 17,6 C 0,0 km/h (0 Bft)
30.07.2010 20:45 19,9 C 19,1 C 14,3 C 19,0 C 17,2 C 0,0 C 69 % 81 % 0 % 1014,1 hPa 0,0 l/m 0,0 km/h (0 Bft) S 180 0 min 0,0 UV-I 14,0 C 17,2 C 0,0 km/h (0 Bft)
30.07.2010 20:50 19,7 C 19,1 C 14,3 C 18,8 C 17,0 C 0,0 C 69 % 81 % 0 % 1014,1 hPa 0,0 l/m 0,0 km/h (0 Bft) S 180 0 min 0,0 UV-I 13,8 C 17,0 C 0,0 km/h (0 Bft)
30.07.2010 20:55 19,6 C 19,1 C 14,3 C 18,6 C 16,6 C 0,0 C 71 % 81 % 0 % 1014,1 hPa 0,0 l/m 0,0 km/h (0 Bft) S 180 0 min 0,0 UV-I 14,2 C 16,6 C 0,0 km/h (0 Bft)
30.07.2010 21:00 19,5 C 19,1 C 14,3 C 18,5 C 16,4 C 0,0 C 71 % 81 % 0 % 1014,3 hPa 0,0 l/m 0,0 km/h (0 Bft) S 180 0 min 0,0 UV-I 14,1 C 16,4 C 0,0 km/h (0 Bft)
30.07.2010 21:07 19,1 C 19,1 C 14,3 C 18,0 C 15,8 C 0,0 C 72 % 81 % 0 % 1014,3 hPa 0,0 l/m 0,2 km/h (0 Bft) N 0 0 min 0,0 UV-I 13,9 C 15,8 C 0,0 km/h (0 Bft)
30.07.2010 21:10 19,1 C 19,1 C 14,3 C 18,0 C 15,8 C 0,0 C 72 % 81 % 0 % 1014,3 hPa 0,0 l/m 0,2 km/h (0 Bft) SO 135 0 min 0,0 UV-I 13,9 C 15,8 C 0,0 km/h (0 Bft)
30.07.2010 21:15 18,8 C 19,1 C 14,3 C 17,7 C 15,6 C 0,0 C 72 % 81 % 0 % 1014,3 hPa 0,0 l/m 0,0 km/h (0 Bft) SO 135 0 min 0,0 UV-I 13,6 C 15,6 C 0,0 km/h (0 Bft)
30.07.2010 21:20 18,6 C 19,1 C 14,3 C 17,5 C 15,4 C 0,0 C 73 % 81 % 0 % 1014,5 hPa 0,0 l/m 0,0 km/h (0 Bft) SO 135 0 min 0,0 UV-I 13,7 C 15,4 C 0,0 km/h (0 Bft)
30.07.2010 21:25 18,7 C 19,1 C 14,3 C 17,5 C 15,0 C 0,0 C 74 % 81 % 0 % 1014,5 hPa 0,0 l/m 0,2 km/h (0 Bft) SO 135 0 min 0,0 UV-I 14,0 C 15,0 C 1,9 km/h (1 Bft)
30.07.2010 21:30 18,6 C 19,1 C 14,3 C 17,4 C 15,0 C 0,0 C 75 % 81 % 0 % 1014,5 hPa 0,0 l/m 0,5 km/h (0 Bft) SO 135 0 min 0,0 UV-I 14,1 C 15,0 C 0,0 km/h (0 Bft)
30.07.2010 21:35 18,5 C 19,1 C 14,3 C 17,2 C 14,7 C 0,0 C 74 % 81 % 0 % 1014,5 hPa 0,0 l/m 0,5 km/h (0 Bft) SO 135 0 min 0,0 UV-I 13,8 C 14,7 C 0,0 km/h (0 Bft)
30.07.2010 21:40 18,3 C 19,1 C 14,3 C 17,0 C 14,5 C 0,0 C 75 % 81 % 0 % 1014,5 hPa 0,0 l/m 0,0 km/h (0 Bft) SO 135 0 min 0,0 UV-I 13,8 C 14,5 C 0,0 km/h (0 Bft)
30.07.2010 21:45 18,3 C 19,1 C 14,3 C 17,1 C 14,7 C 0,0 C 76 % 81 % 0 % 1014,5 hPa 0,0 l/m 0,3 km/h (0 Bft) S 180 0 min 0,0 UV-I 14,0 C 14,7 C 0,0 km/h (0 Bft)
30.07.2010 21:50 18,0 C 19,1 C 14,3 C 16,9 C 14,7 C 0,0 C 75 % 81 % 0 % 1014,5 hPa 0,0 l/m 0,3 km/h (0 Bft) S 180 0 min 0,0 UV-I 13,5 C 14,7 C 0,0 km/h (0 Bft)
30.07.2010 21:55 17,9 C 19,1 C 14,3 C 16,8 C 14,7 C 0,0 C 76 % 81 % 0 % 1014,5 hPa 0,0 l/m 0,0 km/h (0 Bft) S 180 0 min 0,0 UV-I 13,6 C 14,7 C 0,0 km/h (0 Bft)
30.07.2010 22:00 17,7 C 19,1 C 14,3 C 16,6 C 14,5 C 0,0 C 76 % 81 % 0 % 1014,8 hPa 0,0 l/m 0,0 km/h (0 Bft) S 180 0 min 0,0 UV-I 13,4 C 14,5 C 0,0 km/h (0 Bft)
30.07.2010 22:07 17,6 C 19,1 C 14,3 C 16,4 C 14,1 C 0,0 C 77 % 81 % 0 % 1014,8 hPa 0,0 l/m 0,0 km/h (0 Bft) N 0 0 min 0,0 UV-I 13,5 C 14,1 C 0,0 km/h (0 Bft)
30.07.2010 22:10 17,6 C 19,1 C 14,3 C 16,4 C 14,1 C 0,0 C 77 % 81 % 0 % 1014,8 hPa 0,0 l/m 0,0 km/h (0 Bft) S 180 0 min 0,0 UV-I 13,5 C 14,1 C 0,0 km/h (0 Bft)
30.07.2010 22:15 17,5 C 19,1 C 14,3 C 16,3 C 14,0 C 0,0 C 78 % 81 % 0 % 1014,8 hPa 0,0 l/m 0,0 km/h (0 Bft) S 180 0 min 0,0 UV-I 13,6 C 14,0 C 0,0 km/h (0 Bft)
30.07.2010 22:20 17,5 C 19,1 C 14,3 C 16,3 C 13,9 C 0,0 C 78 % 81 % 0 % 1014,9 hPa 0,0 l/m 0,0 km/h (0 Bft) S 180 0 min 0,0 UV-I 13,6 C 13,9 C 0,0 km/h (0 Bft)
30.07.2010 22:25 17,5 C 19,1 C 14,3 C 16,2 C 13,6 C 0,0 C 78 % 81 % 0 % 1014,9 hPa 0,0 l/m 0,2 km/h (0 Bft) S 180 0 min 0,0 UV-I 13,6 C 13,6 C 0,0 km/h (0 Bft)
30.07.2010 22:30 17,3 C 19,1 C 14,3 C 16,0 C 13,5 C 0,0 C 78 % 81 % 0 % 1014,9 hPa 0,0 l/m 0,2 km/h (0 Bft) S 180 0 min 0,0 UV-I 13,4 C 13,5 C 0,0 km/h (0 Bft)
30.07.2010 22:35 17,2 C 19,1 C 14,3 C 15,9 C 13,3 C 0,0 C 78 % 81 % 0 % 1014,9 hPa 0,0 l/m 0,0 km/h (0 Bft) S 180 0 min 0,0 UV-I 13,3 C 13,3 C 0,0 km/h (0 Bft)
30.07.2010 22:40 17,2 C 19,1 C 14,3 C 15,9 C 13,3 C 0,0 C 79 % 81 % 0 % 1015,1 hPa 0,0 l/m 0,2 km/h (0 Bft) S 180 0 min 0,0 UV-I 13,5 C 13,3 C 1,8 km/h (1 Bft)
30.07.2010 22:45 17,1 C 19,1 C 14,3 C 15,8 C 13,2 C 0,0 C 79 % 81 % 0 % 1015,1 hPa 0,0 l/m 0,3 km/h (0 Bft) S 180 0 min 0,0 UV-I 13,4 C 13,2 C 0,0 km/h (0 Bft)
30.07.2010 22:50 17,1 C 19,1 C 14,3 C 15,8 C 13,1 C 0,0 C 79 % 81 % 0 % 1015,1 hPa 0,0 l/m 0,3 km/h (0 Bft) S 180 0 min 0,0 UV-I 13,4 C 13,1 C 0,0 km/h (0 Bft)
30.07.2010 22:55 16,6 C 19,1 C 14,3 C 15,4 C 13,0 C 0,0 C 79 % 81 % 0 % 1015,1 hPa 0,0 l/m 0,0 km/h (0 Bft) S 180 0 min 0,0 UV-I 12,9 C 13,0 C 0,0 km/h (0 Bft)
30.07.2010 23:00 16,6 C 19,1 C 14,3 C 15,3 C 12,8 C 0,0 C 80 % 81 % 0 % 1015,2 hPa 0,0 l/m 0,0 km/h (0 Bft) S 180 0 min 0,0 UV-I 13,1 C 12,8 C 0,0 km/h (0 Bft)
30.07.2010 23:07 16,5 C 19,1 C 14,3 C 15,2 C 12,7 C 0,0 C 80 % 81 % 0 % 1015,2 hPa 0,0 l/m 0,2 km/h (0 Bft) N 0 0 min 0,0 UV-I 13,0 C 12,7 C 0,0 km/h (0 Bft)
30.07.2010 23:10 16,5 C 19,1 C 14,3 C 15,2 C 12,7 C 0,0 C 80 % 81 % 0 % 1015,2 hPa 0,0 l/m 0,2 km/h (0 Bft) S 180 0 min 0,0 UV-I 13,0 C 12,7 C 0,0 km/h (0 Bft)
30.07.2010 23:15 16,5 C 19,1 C 14,3 C 15,2 C 12,6 C 0,0 C 80 % 81 % 0 % 1015,2 hPa 0,0 l/m 0,0 km/h (0 Bft) S 180 0 min 0,0 UV-I 13,0 C 12,6 C 0,0 km/h (0 Bft)
30.07.2010 23:20 16,4 C 19,1 C 14,3 C 15,1 C 12,5 C 0,0 C 80 % 81 % 0 % 1015,3 hPa 0,0 l/m 0,0 km/h (0 Bft) S 180 0 min 0,0 UV-I 12,9 C 12,5 C 0,0 km/h (0 Bft)
30.07.2010 23:25 16,2 C 19,1 C 14,3 C 14,9 C 12,3 C 0,0 C 81 % 81 % 0 % 1015,3 hPa 0,0 l/m 0,0 km/h (0 Bft) S 180 0 min 0,0 UV-I 12,9 C 12,3 C 0,0 km/h (0 Bft)
30.07.2010 23:30 16,3 C 19,1 C 14,3 C 15,0 C 12,3 C 0,0 C 81 % 81 % 0 % 1015,3 hPa 0,0 l/m 0,0 km/h (0 Bft) S 180 0 min 0,0 UV-I 13,0 C 12,3 C 0,0 km/h (0 Bft)
30.07.2010 23:35 16,1 C 19,1 C 14,3 C 14,8 C 12,3 C 0,0 C 81 % 81 % 0 % 1015,3 hPa 0,0 l/m 0,0 km/h (0 Bft) S 180 0 min 0,0 UV-I 12,8 C 12,3 C 0,0 km/h (0 Bft)
30.07.2010 23:40 16,1 C 19,1 C 14,3 C 14,8 C 12,1 C 0,0 C 81 % 81 % 0 % 1015,2 hPa 0,0 l/m 0,0 km/h (0 Bft) S 180 0 min 0,0 UV-I 12,8 C 12,1 C 0,0 km/h (0 Bft)
30.07.2010 23:45 15,9 C 19,1 C 14,3 C 14,6 C 12,0 C 0,0 C 81 % 81 % 0 % 1015,2 hPa 0,0 l/m 0,0 km/h (0 Bft) S 180 0 min 0,0 UV-I 12,6 C 12,0 C 0,0 km/h (0 Bft)
30.07.2010 23:50 15,9 C 19,1 C 14,3 C 14,6 C 12,0 C 0,0 C 81 % 81 % 0 % 1015,2 hPa 0,0 l/m 0,0 km/h (0 Bft) S 180 0 min 0,0 UV-I 12,6 C 12,0 C 0,0 km/h (0 Bft)
30.07.2010 23:55 15,7 C 19,1 C 14,3 C 14,4 C 11,9 C 0,0 C 81 % 81 % 0 % 1015,2 hPa 0,0 l/m 0,0 km/h (0 Bft) S 180 0 min 0,0 UV-I 12,4 C 11,9 C 0,0 km/h (0 Bft)
_ Min-Zeit 03:30 10:07 02:15 01:55 23:55 00:00 18:35 00:00 00:00 00:00 - 01:30 - - - 00:00 18:45 23:55 00:20
Minimum _ 14,6 C 18,2 C 13,5 C 13,9 C 11,9 C 0,0 C 51 % 80 % 0 % 1008,8 hPa - 0,0 km/h (0 Bft) - - - 0,0 UV-I 12,0 C 11,9 C 0,0 km/h (0 Bft)
_ Max-Zeit 18:20 00:00 00:00 15:07 15:07 12:55 04:45 05:07 08:35 23:20 00:00 13:35 - - 10:07 12:55 10:07 15:07 13:35
Maximum _ 23,0 C 19,4 C 14,5 C 26,4 C 26,4 C 5,8 C 87 % 83 % 100 % 1015,3 hPa 0,0 l/m 6,0 km/h
W-SW (2 Bft)
- - 7 min 3,6 UV-I 14,2 C 26,4 C 13,2 km/h
W-SW (3 Bft)
Durchschnitt _ 17,9 C 18,8 C 14,2 C 18,7 C 17,9 C 1,2 C 74 % 81 % 31 % 1011,9 hPa #0,0 l/m 1,7 km/h (1 Bft) SW - #3:25 h 1,2 UV-I 13,0 C 17,9 C 2,4 km/h (1 Bft)
2010 www.wetterstation-wechselburg.de